Bookmark and Share
Track history (hours):
 

Kay A. Eckstein

More information available from US FCC via Universal Licensing System and Coast Guard Vessel Documentation Center.

Last reported at 2014-Apr-10 10:10 UTC. Time now 2014-Apr-21 12:12 UTC.
Position N 30°07' W 090°57'.
Warning: this ship's position is 11 days out of date.

Length 34 m; draft 3.4 m.

MMSI: 366971460.

NotesDate/timePositionNaut miles runAvg speedWind from/ knotsBaromVisibWave heightAir tempDewpointWater temp
2014-Apr-10 10:10N 30°07' W 090°57'2 2.2
2014-Apr-10 09:18N 30°06' W 090°55'3 4.2
2014-Apr-10 08:32N 30°04' W 090°52'4 4.4
2014-Apr-10 07:33N 29°60' W 090°50'2 2.0
2014-Apr-10 06:33N 29°60' W 090°48'3 3.0
2014-Apr-10 05:33N 30°01' W 090°44'5 4.8
2014-Apr-10 04:33N 30°03' W 090°39'1 1.1
2014-Apr-10 03:33N 30°03' W 090°38'0 0.0
2014-Apr-10 02:33N 30°03' W 090°38'2 1.7
2014-Apr-10 01:33N 30°02' W 090°36'0 0.0
2014-Apr-10 00:33N 30°02' W 090°36'0 0.0
2014-Apr-09 23:33N 30°02' W 090°36'0 0.0
2014-Apr-09 22:33N 30°02' W 090°36'0 0.1
2014-Apr-09 20:19N 30°02' W 090°36'1 1.8
2014-Apr-09 19:33N 30°03' W 090°35'3 3.0
2014-Apr-09 18:33N 30°03' W 090°32'3 0.4
2014-Apr-09 12:15N 30°02' W 090°29'0 0.1
2014-Apr-09 11:33N 30°02' W 090°29'0 0.0
2014-Apr-09 10:33N 30°02' W 090°28'1 0.8
2014-Apr-09 09:33N 30°01' W 090°28'4 3.6
2014-Apr-09 08:33N 29°59' W 090°25'4 3.9
2014-Apr-09 07:31N 29°56' W 090°22'0 0.5
2014-Apr-09 06:26N 29°56' W 090°21'0 0.0
2014-Apr-09 05:32N 29°56' W 090°21'0 0.0
2014-Apr-09 04:30N 29°56' W 090°21'0 0.0
2014-Apr-09 03:29N 29°56' W 090°21'0 0.0
2014-Apr-09 02:33N 29°56' W 090°21'0 0.0
2014-Apr-09 01:33N 29°56' W 090°21'0 0.0
2014-Apr-09 00:32N 29°56' W 090°21'0 0.0
2014-Apr-08 23:33N 29°56' W 090°21'0 0.0
2014-Apr-08 22:33N 29°56' W 090°21'0 0.0
2014-Apr-08 10:26N 29°56' W 090°21'0 0.1
2014-Apr-08 09:33N 29°56' W 090°21'0 0.0
2014-Apr-08 08:33N 29°56' W 090°21'0 0.0
2014-Apr-08 07:33N 29°56' W 090°21'0 0.3
2014-Apr-08 06:33N 29°56' W 090°21'5 5.3
2014-Apr-08 05:33N 29°60' W 090°25'3 3.4
2014-Apr-08 04:33N 30°02' W 090°28'0 0.0
2014-Apr-08 03:33N 30°02' W 090°28'0 0.3
2014-Apr-08 02:33N 30°02' W 090°28'5 5.2
2014-Apr-08 01:33N 30°03' W 090°34'0 0.0
2014-Apr-08 00:33N 30°03' W 090°34'0 0.0
2014-Apr-07 23:33N 30°03' W 090°34'0 0.0
2014-Apr-07 22:33N 30°03' W 090°34'0 0.0
2014-Apr-07 21:33N 30°03' W 090°34'2 1.7
2014-Apr-07 20:33N 30°03' W 090°36'11 1.8
2014-Apr-07 14:31N 29°60' W 090°48'8 3.5
2014-Apr-07 12:22N 30°05' W 090°55'0 0.0
2014-Apr-07 11:33N 30°05' W 090°55'0 0.0
2014-Apr-07 09:32N 30°05' W 090°55'0 0.0
2014-Apr-07 05:21N 30°05' W 090°55'0 0.0
2014-Apr-07 03:27N 30°05' W 090°55'  

Dump ship's entire track history

sailing weather and tide predictions

Kay A. Eckstein — WDB9183 — position and weather